OCN152 FIMP-FSIA
Flight info
| Callsign | OCN152 |
|---|---|
| Flight time | N/A |
| Altitude | 41000 |
| Route | DURDA1B DURDA UT401 ALRAN UM313 RERUS DCT IMPOX IMPOX1R |
| Aircraft | A333/H-SDE3GHIJ2J3J5M1RVWXY/LB2D1 |
Departure
| Time | 2026-05-09 03:06 |
|---|---|
| Airport | Sir Seewoosagur Ramgoolam International Airport (FIMP) |
Arrival
| Time | N/A |
|---|---|
| Airport | Seychelles International Airport (FSIA) |
| Time | Latitude | Longitude | Altitude | Speed | Heading |
|---|---|---|---|---|---|
| 2026-05-09 02:15 | -20.43264 | 57.67951 | 190 ft | 0 kts | 237° |
| 2026-05-09 02:58 | -20.43262 | 57.67953 | 190 ft | 3 kts | 237° |
| 2026-05-09 02:58 | -20.43248 | 57.67977 | 206 ft | 4 kts | 237° |
| 2026-05-09 02:58 | -20.43233 | 57.68001 | 206 ft | 4 kts | 237° |
| 2026-05-09 02:58 | -20.43221 | 57.68022 | 190 ft | 4 kts | 253° |
| 2026-05-09 02:59 | -20.43222 | 57.68046 | 196 ft | 4 kts | 309° |
| 2026-05-09 02:59 | -20.43242 | 57.68064 | 202 ft | 4 kts | 332° |
| 2026-05-09 02:59 | -20.43263 | 57.68074 | 206 ft | 1 kts | 335° |
| 2026-05-09 03:01 | -20.43260 | 57.68073 | 190 ft | 3 kts | 335° |
| 2026-05-09 03:01 | -20.43227 | 57.68071 | 194 ft | 6 kts | 10° |
| 2026-05-09 03:01 | -20.43182 | 57.68088 | 196 ft | 8 kts | 24° |
| 2026-05-09 03:02 | -20.43126 | 57.68111 | 202 ft | 9 kts | 4° |
| 2026-05-09 03:02 | -20.43082 | 57.68071 | 205 ft | 9 kts | 298° |
| 2026-05-09 03:02 | -20.43049 | 57.68006 | 200 ft | 11 kts | 298° |
| 2026-05-09 03:02 | -20.43012 | 57.67930 | 199 ft | 12 kts | 297° |
| 2026-05-09 03:03 | -20.42971 | 57.67844 | 201 ft | 14 kts | 297° |
| 2026-05-09 03:03 | -20.42926 | 57.67749 | 195 ft | 15 kts | 297° |
| 2026-05-09 03:03 | -20.42876 | 57.67648 | 202 ft | 16 kts | 298° |
| 2026-05-09 03:03 | -20.42818 | 57.67562 | 200 ft | 12 kts | 322° |
| 2026-05-09 03:04 | -20.42751 | 57.67508 | 200 ft | 12 kts | 325° |
| 2026-05-09 03:04 | -20.42677 | 57.67467 | 205 ft | 11 kts | 339° |
| 2026-05-09 03:04 | -20.42617 | 57.67449 | 209 ft | 5 kts | 6° |
| 2026-05-09 03:04 | -20.42609 | 57.67461 | 200 ft | 1 kts | 58° |
| 2026-05-09 03:05 | -20.42608 | 57.67478 | 202 ft | 4 kts | 92° |
| 2026-05-09 03:05 | -20.42623 | 57.67520 | 210 ft | 12 kts | 115° |
| 2026-05-09 03:05 | -20.42755 | 57.67797 | 202 ft | 74 kts | 117° |
| 2026-05-09 03:05 | -20.43087 | 57.68485 | 184 ft | 133 kts | 117° |
| 2026-05-09 03:06 | -20.43565 | 57.69480 | 517 ft | 153 kts | 116° |
| 2026-05-09 03:06 | -20.44020 | 57.70415 | 1414 ft | 137 kts | 114° |
| 2026-05-09 03:06 | -20.44502 | 57.71301 | 2000 ft | 141 kts | 115° |
| 2026-05-09 03:06 | -20.44989 | 57.72312 | 2277 ft | 165 kts | 113° |
| 2026-05-09 03:07 | -20.45343 | 57.73081 | 2468 ft | 182 kts | 113° |
| 2026-05-09 03:07 | -20.45900 | 57.74370 | 2943 ft | 198 kts | 108° |
| 2026-05-09 03:07 | -20.46066 | 57.76444 | 3345 ft | 231 kts | 76° |
| 2026-05-09 03:07 | -20.45600 | 57.77518 | 3699 ft | 243 kts | 56° |
| 2026-05-09 03:08 | -20.44269 | 57.78641 | 4388 ft | 256 kts | 28° |
| 2026-05-09 03:08 | -20.42580 | 57.79325 | 5132 ft | 263 kts | 22° |
| 2026-05-09 03:08 | -20.40821 | 57.79941 | 5919 ft | 268 kts | 21° |
| 2026-05-09 03:08 | -20.39034 | 57.80547 | 6737 ft | 271 kts | 21° |
| 2026-05-09 03:09 | -20.37219 | 57.81163 | 7535 ft | 274 kts | 21° |
| 2026-05-09 03:09 | -20.35390 | 57.81790 | 8324 ft | 278 kts | 21° |
| 2026-05-09 03:09 | -20.33534 | 57.82433 | 9129 ft | 283 kts | 21° |
| 2026-05-09 03:09 | -20.31611 | 57.82986 | 9913 ft | 291 kts | 11° |
| 2026-05-09 03:10 | -20.29578 | 57.83100 | 10496 ft | 304 kts | 2° |
| 2026-05-09 03:10 | -20.27378 | 57.82956 | 10807 ft | 327 kts | 355° |
| 2026-05-09 03:10 | -20.25071 | 57.82485 | 11100 ft | 347 kts | 347° |
| 2026-05-09 03:10 | -20.22723 | 57.81682 | 11598 ft | 358 kts | 342° |
| 2026-05-09 03:11 | -20.20353 | 57.80769 | 12152 ft | 367 kts | 341° |
| 2026-05-09 03:11 | -20.17904 | 57.79816 | 12432 ft | 384 kts | 341° |
| 2026-05-09 03:11 | -20.15350 | 57.78834 | 12804 ft | 395 kts | 341° |
| 2026-05-09 03:11 | -20.12733 | 57.77841 | 13333 ft | 401 kts | 342° |
| 2026-05-09 03:12 | -20.10124 | 57.76844 | 13803 ft | 408 kts | 341° |
| 2026-05-09 03:12 | -20.07437 | 57.75833 | 14358 ft | 410 kts | 341° |
| 2026-05-09 03:12 | -20.04768 | 57.74744 | 14910 ft | 412 kts | 336° |
| 2026-05-09 03:12 | -20.02183 | 57.73376 | 15404 ft | 416 kts | 332° |
| 2026-05-09 03:13 | -19.97095 | 57.70408 | 16574 ft | 418 kts | 331° |
| 2026-05-09 03:13 | -19.94547 | 57.68891 | 17069 ft | 422 kts | 330° |
| 2026-05-09 03:13 | -19.91980 | 57.67356 | 17599 ft | 423 kts | 330° |
| 2026-05-09 03:14 | -19.89403 | 57.65812 | 18127 ft | 425 kts | 330° |
| 2026-05-09 03:14 | -19.86818 | 57.64263 | 18584 ft | 427 kts | 330° |
| 2026-05-09 03:14 | -19.84226 | 57.62709 | 18974 ft | 430 kts | 330° |
| 2026-05-09 03:14 | -19.81613 | 57.61143 | 19360 ft | 433 kts | 330° |
| 2026-05-09 03:15 | -19.79010 | 57.59584 | 19733 ft | 435 kts | 330° |
| 2026-05-09 03:15 | -19.76364 | 57.57998 | 20105 ft | 438 kts | 330° |
| 2026-05-09 03:15 | -19.73704 | 57.56406 | 20461 ft | 440 kts | 330° |
| 2026-05-09 03:15 | -19.71023 | 57.54800 | 20815 ft | 443 kts | 330° |
| 2026-05-09 03:16 | -19.68325 | 57.53186 | 21165 ft | 445 kts | 330° |
| 2026-05-09 03:16 | -19.65613 | 57.51564 | 21517 ft | 448 kts | 330° |
| 2026-05-09 03:16 | -19.62892 | 57.49937 | 21874 ft | 450 kts | 330° |
| 2026-05-09 03:16 | -19.60179 | 57.48315 | 22201 ft | 453 kts | 330° |
| 2026-05-09 03:17 | -19.57421 | 57.46667 | 22550 ft | 455 kts | 330° |
| 2026-05-09 03:17 | -19.54649 | 57.45012 | 22887 ft | 458 kts | 330° |
| 2026-05-09 03:17 | -19.51868 | 57.43352 | 23219 ft | 460 kts | 330° |
| 2026-05-09 03:17 | -19.49072 | 57.41683 | 23534 ft | 462 kts | 330° |
| 2026-05-09 03:18 | -19.46250 | 57.39999 | 23776 ft | 466 kts | 330° |
| 2026-05-09 03:18 | -19.43446 | 57.38327 | 24050 ft | 468 kts | 330° |
| 2026-05-09 03:18 | -19.40604 | 57.36633 | 24369 ft | 469 kts | 330° |
| 2026-05-09 03:18 | -19.37749 | 57.34932 | 24690 ft | 470 kts | 330° |
| 2026-05-09 03:19 | -19.34884 | 57.33226 | 24997 ft | 472 kts | 330° |
| 2026-05-09 03:19 | -19.32021 | 57.31521 | 25298 ft | 473 kts | 330° |
| 2026-05-09 03:19 | -19.29147 | 57.29811 | 25623 ft | 474 kts | 330° |
| 2026-05-09 03:19 | -19.26302 | 57.28119 | 25917 ft | 476 kts | 329° |
| 2026-05-09 03:20 | -19.23406 | 57.26398 | 26219 ft | 477 kts | 330° |
| 2026-05-09 03:20 | -19.20500 | 57.24671 | 26565 ft | 478 kts | 329° |
| 2026-05-09 03:20 | -19.17594 | 57.22944 | 26855 ft | 480 kts | 329° |
| 2026-05-09 03:20 | -19.14673 | 57.21209 | 27102 ft | 483 kts | 329° |
| 2026-05-09 03:21 | -19.11730 | 57.19463 | 27410 ft | 485 kts | 329° |
| 2026-05-09 03:21 | -19.08783 | 57.17714 | 27727 ft | 486 kts | 330° |
| 2026-05-09 03:21 | -19.05825 | 57.15960 | 27994 ft | 489 kts | 329° |
| 2026-05-09 03:21 | -19.02854 | 57.14197 | 28342 ft | 489 kts | 328° |
| 2026-05-09 03:22 | -18.99926 | 57.12461 | 28642 ft | 490 kts | 329° |
| 2026-05-09 03:22 | -18.96937 | 57.10691 | 28884 ft | 493 kts | 329° |
| 2026-05-09 03:22 | -18.93940 | 57.08916 | 29238 ft | 493 kts | 328° |
| 2026-05-09 03:22 | -18.90949 | 57.07147 | 29709 ft | 490 kts | 328° |
| 2026-05-09 03:23 | -18.87973 | 57.05385 | 30074 ft | 490 kts | 329° |
| 2026-05-09 03:23 | -18.84996 | 57.03625 | 30410 ft | 489 kts | 328° |
| 2026-05-09 03:23 | -18.82027 | 57.01870 | 30799 ft | 487 kts | 329° |
| 2026-05-09 03:23 | -18.79119 | 57.00151 | 31128 ft | 486 kts | 329° |
| 2026-05-09 03:24 | -18.76155 | 56.98401 | 31432 ft | 486 kts | 329° |
| 2026-05-09 03:24 | -18.73214 | 56.96664 | 31825 ft | 483 kts | 329° |
| 2026-05-09 03:24 | -18.70274 | 56.94929 | 32182 ft | 482 kts | 329° |
| 2026-05-09 03:24 | -18.67334 | 56.93194 | 32494 ft | 481 kts | 329° |
| 2026-05-09 03:25 | -18.64417 | 56.91474 | 32870 ft | 480 kts | 329° |
| 2026-05-09 03:25 | -18.61507 | 56.89758 | 33248 ft | 478 kts | 329° |
| 2026-05-09 03:25 | -18.58640 | 56.88068 | 33583 ft | 477 kts | 329° |
| 2026-05-09 03:25 | -18.55704 | 56.86339 | 33943 ft | 476 kts | 329° |
| 2026-05-09 03:26 | -18.52850 | 56.84658 | 34258 ft | 475 kts | 329° |
| 2026-05-09 03:26 | -18.49960 | 56.82957 | 34478 ft | 476 kts | 329° |
| 2026-05-09 03:26 | -18.47062 | 56.81251 | 34673 ft | 477 kts | 329° |
| 2026-05-09 03:26 | -18.44149 | 56.79538 | 34938 ft | 477 kts | 329° |
| 2026-05-09 03:27 | -18.41273 | 56.77847 | 35062 ft | 480 kts | 329° |
| 2026-05-09 03:27 | -18.38346 | 56.76126 | 35148 ft | 484 kts | 329° |
| 2026-05-09 03:27 | -18.32419 | 56.72644 | 35352 ft | 490 kts | 329° |
| 2026-05-09 03:28 | -18.29436 | 56.70894 | 35534 ft | 491 kts | 329° |
| 2026-05-09 03:28 | -18.26446 | 56.69140 | 35780 ft | 491 kts | 329° |
| 2026-05-09 03:28 | -18.23470 | 56.67395 | 36024 ft | 490 kts | 329° |
| 2026-05-09 03:28 | -18.20486 | 56.65646 | 36246 ft | 490 kts | 328° |
| 2026-05-09 03:29 | -18.17511 | 56.63902 | 36484 ft | 489 kts | 328° |
| 2026-05-09 03:29 | -18.14532 | 56.62157 | 36735 ft | 489 kts | 328° |
| 2026-05-09 03:29 | -18.11517 | 56.60489 | 36984 ft | 490 kts | 333° |
| 2026-05-09 03:29 | -18.08358 | 56.59239 | 37211 ft | 492 kts | 342° |
| 2026-05-09 03:30 | -18.04985 | 56.58519 | 37440 ft | 495 kts | 349° |
| 2026-05-09 03:30 | -18.01566 | 56.58077 | 37692 ft | 495 kts | 352° |
| 2026-05-09 03:30 | -17.98136 | 56.57736 | 37913 ft | 495 kts | 353° |
| 2026-05-09 03:30 | -17.94703 | 56.57441 | 38140 ft | 495 kts | 353° |
| 2026-05-09 03:31 | -17.91259 | 56.57154 | 38312 ft | 495 kts | 353° |
| 2026-05-09 03:31 | -17.87826 | 56.56863 | 38516 ft | 495 kts | 353° |
| 2026-05-09 03:31 | -17.84427 | 56.56564 | 38683 ft | 495 kts | 353° |
| 2026-05-09 03:31 | -17.80979 | 56.56250 | 38873 ft | 495 kts | 353° |
| 2026-05-09 03:32 | -17.77549 | 56.55932 | 39082 ft | 493 kts | 352° |
| 2026-05-09 03:32 | -17.74134 | 56.55610 | 39272 ft | 492 kts | 352° |
| 2026-05-09 03:32 | -17.70719 | 56.55287 | 39474 ft | 491 kts | 352° |
| 2026-05-09 03:32 | -17.67361 | 56.54969 | 39661 ft | 490 kts | 352° |
| 2026-05-09 03:33 | -17.63961 | 56.54647 | 39842 ft | 489 kts | 352° |
| 2026-05-09 03:33 | -17.60563 | 56.54326 | 40022 ft | 488 kts | 352° |
| 2026-05-09 03:33 | -17.57164 | 56.54005 | 40177 ft | 488 kts | 353° |
| 2026-05-09 03:33 | -17.53821 | 56.53690 | 40342 ft | 487 kts | 352° |
| 2026-05-09 03:34 | -17.50445 | 56.53372 | 40510 ft | 486 kts | 352° |
| 2026-05-09 03:34 | -17.47069 | 56.53055 | 40681 ft | 486 kts | 352° |
| 2026-05-09 03:34 | -17.43702 | 56.52738 | 40846 ft | 485 kts | 353° |
| 2026-05-09 03:34 | -17.40337 | 56.52422 | 40997 ft | 484 kts | 353° |
| 2026-05-09 03:35 | -17.33655 | 56.51794 | 41076 ft | 483 kts | 352° |
| 2026-05-09 03:35 | -17.26943 | 56.51163 | 41074 ft | 483 kts | 352° |
| 2026-05-09 03:36 | -17.20237 | 56.50533 | 41067 ft | 484 kts | 352° |
| 2026-05-09 03:36 | -17.13563 | 56.49907 | 41065 ft | 484 kts | 352° |
| 2026-05-09 03:37 | -17.06857 | 56.49279 | 41055 ft | 484 kts | 352° |
| 2026-05-09 03:37 | -17.00154 | 56.48651 | 41056 ft | 484 kts | 353° |
| 2026-05-09 03:38 | -16.93438 | 56.48023 | 41054 ft | 484 kts | 353° |
| 2026-05-09 03:38 | -16.86753 | 56.47398 | 41061 ft | 484 kts | 353° |
| 2026-05-09 03:39 | -16.80035 | 56.46770 | 41059 ft | 484 kts | 353° |
| 2026-05-09 03:39 | -16.73305 | 56.46141 | 41066 ft | 484 kts | 352° |
| 2026-05-09 03:40 | -16.66586 | 56.45514 | 41052 ft | 484 kts | 352° |
| 2026-05-09 03:40 | -16.59893 | 56.44889 | 41059 ft | 485 kts | 352° |
| 2026-05-09 03:41 | -16.53154 | 56.44261 | 41059 ft | 485 kts | 352° |
| 2026-05-09 03:41 | -16.46439 | 56.43636 | 41060 ft | 485 kts | 352° |
| 2026-05-09 03:42 | -16.39750 | 56.43014 | 41057 ft | 485 kts | 353° |
| 2026-05-09 03:42 | -16.33021 | 56.42387 | 41057 ft | 484 kts | 352° |
| 2026-05-09 03:43 | -16.26302 | 56.41762 | 41050 ft | 484 kts | 353° |
| 2026-05-09 03:43 | -16.19623 | 56.41142 | 41056 ft | 484 kts | 353° |
| 2026-05-09 03:44 | -16.12906 | 56.40521 | 41048 ft | 484 kts | 353° |
| 2026-05-09 03:44 | -16.06182 | 56.39899 | 41048 ft | 484 kts | 353° |
| 2026-05-09 03:45 | -15.99457 | 56.39276 | 41047 ft | 484 kts | 353° |
| 2026-05-09 03:45 | -15.92790 | 56.38656 | 41050 ft | 484 kts | 353° |
| 2026-05-09 03:46 | -15.86074 | 56.38034 | 41039 ft | 484 kts | 352° |
| 2026-05-09 03:46 | -15.79365 | 56.37414 | 41044 ft | 484 kts | 353° |
| 2026-05-09 03:47 | -15.72657 | 56.36795 | 41047 ft | 484 kts | 352° |
| 2026-05-09 03:47 | -15.65937 | 56.36173 | 41045 ft | 484 kts | 352° |
| 2026-05-09 03:48 | -15.59264 | 56.35558 | 41043 ft | 484 kts | 352° |
| 2026-05-09 03:48 | -15.52556 | 56.34940 | 41045 ft | 484 kts | 353° |
| 2026-05-09 03:49 | -15.45844 | 56.34322 | 41043 ft | 484 kts | 353° |
| 2026-05-09 03:49 | -15.39127 | 56.33703 | 41037 ft | 484 kts | 353° |
| 2026-05-09 03:50 | -15.32452 | 56.33088 | 41038 ft | 484 kts | 353° |
| 2026-05-09 03:50 | -15.25749 | 56.32472 | 41043 ft | 484 kts | 352° |
| 2026-05-09 03:51 | -15.19035 | 56.31853 | 41045 ft | 484 kts | 351° |
| 2026-05-09 03:51 | -15.12316 | 56.31237 | 41039 ft | 484 kts | 352° |
| 2026-05-09 03:52 | -15.06741 | 56.30725 | 41046 ft | 484 kts | 353° |
| 2026-05-09 03:52 | -14.98933 | 56.30009 | 41035 ft | 483 kts | 352° |
| 2026-05-09 03:53 | -14.93361 | 56.29499 | 41035 ft | 483 kts | 352° |
| 2026-05-09 03:53 | -14.86645 | 56.28883 | 41030 ft | 483 kts | 352° |
| 2026-05-09 03:54 | -14.79979 | 56.28270 | 41030 ft | 483 kts | 353° |
| 2026-05-09 03:54 | -14.73277 | 56.27657 | 41027 ft | 483 kts | 353° |
| 2026-05-09 03:55 | -14.66578 | 56.27044 | 41027 ft | 482 kts | 353° |
| 2026-05-09 03:55 | -14.59912 | 56.26435 | 41022 ft | 482 kts | 353° |
| 2026-05-09 03:56 | -14.53223 | 56.25825 | 41022 ft | 482 kts | 354° |
| 2026-05-09 03:56 | -14.46525 | 56.25212 | 41019 ft | 482 kts | 354° |
| 2026-05-09 03:57 | -14.39841 | 56.24601 | 41019 ft | 482 kts | 353° |
| 2026-05-09 03:57 | -14.33191 | 56.23995 | 41019 ft | 482 kts | 353° |
| 2026-05-09 03:58 | -14.26492 | 56.23384 | 41021 ft | 482 kts | 353° |
| 2026-05-09 03:58 | -14.19788 | 56.22772 | 41017 ft | 483 kts | 353° |
| 2026-05-09 03:59 | -14.13090 | 56.22164 | 41020 ft | 483 kts | 354° |
| 2026-05-09 03:59 | -14.06433 | 56.21559 | 41020 ft | 483 kts | 353° |
| 2026-05-09 04:00 | -13.99727 | 56.20950 | 41019 ft | 483 kts | 353° |
| 2026-05-09 04:00 | -13.93027 | 56.20341 | 41019 ft | 483 kts | 353° |
| 2026-05-09 04:01 | -13.86329 | 56.19730 | 41018 ft | 483 kts | 353° |
| 2026-05-09 04:01 | -13.79679 | 56.19126 | 41016 ft | 483 kts | 353° |
| 2026-05-09 04:02 | -13.72987 | 56.18520 | 41018 ft | 482 kts | 354° |
| 2026-05-09 04:02 | -13.66292 | 56.17913 | 41012 ft | 483 kts | 354° |
| 2026-05-09 04:03 | -13.59581 | 56.17305 | 41011 ft | 483 kts | 354° |
| 2026-05-09 04:03 | -13.52910 | 56.16700 | 41008 ft | 483 kts | 354° |
| 2026-05-09 04:04 | -13.46205 | 56.16092 | 41010 ft | 483 kts | 354° |
| 2026-05-09 04:04 | -13.39494 | 56.15485 | 41009 ft | 483 kts | 354° |
| 2026-05-09 04:05 | -13.32820 | 56.14882 | 41008 ft | 483 kts | 353° |
| 2026-05-09 04:05 | -13.26109 | 56.14276 | 41008 ft | 483 kts | 353° |
| 2026-05-09 04:06 | -13.19402 | 56.13671 | 41001 ft | 483 kts | 353° |
| 2026-05-09 04:06 | -13.12705 | 56.13066 | 41001 ft | 483 kts | 353° |
| 2026-05-09 04:07 | -13.06044 | 56.12465 | 41001 ft | 483 kts | 353° |
| 2026-05-09 04:07 | -12.99333 | 56.11860 | 40999 ft | 483 kts | 353° |
| 2026-05-09 04:08 | -12.92624 | 56.11256 | 40999 ft | 483 kts | 353° |
| 2026-05-09 04:08 | -12.85940 | 56.10653 | 41000 ft | 483 kts | 353° |
| 2026-05-09 04:09 | -12.79227 | 56.10049 | 40997 ft | 483 kts | 353° |
| 2026-05-09 04:09 | -12.72527 | 56.09448 | 40998 ft | 483 kts | 353° |
| 2026-05-09 04:10 | -12.65862 | 56.08847 | 40994 ft | 483 kts | 354° |
| 2026-05-09 04:10 | -12.59160 | 56.08245 | 40996 ft | 483 kts | 353° |
| 2026-05-09 04:11 | -12.52450 | 56.07644 | 40997 ft | 483 kts | 353° |
| 2026-05-09 04:11 | -12.45759 | 56.07043 | 40992 ft | 483 kts | 353° |
| 2026-05-09 04:12 | -12.39090 | 56.06442 | 40987 ft | 481 kts | 353° |
| 2026-05-09 04:12 | -12.32470 | 56.05847 | 40992 ft | 480 kts | 353° |
| 2026-05-09 04:13 | -12.25794 | 56.05249 | 40992 ft | 480 kts | 353° |
| 2026-05-09 04:13 | -12.19131 | 56.04652 | 40992 ft | 480 kts | 352° |
| 2026-05-09 04:14 | -12.12451 | 56.04160 | 40988 ft | 482 kts | 359° |
| 2026-05-09 04:14 | -12.05796 | 56.04804 | 40992 ft | 484 kts | 5° |
| 2026-05-09 04:15 | -11.99118 | 56.05824 | 40992 ft | 485 kts | 7° |
| 2026-05-09 04:15 | -11.92450 | 56.06918 | 40990 ft | 485 kts | 7° |
| 2026-05-09 04:16 | -11.85823 | 56.07992 | 40985 ft | 485 kts | 7° |
| 2026-05-09 04:16 | -11.79140 | 56.09059 | 40984 ft | 485 kts | 6° |
| 2026-05-09 04:17 | -11.72458 | 56.10116 | 40983 ft | 485 kts | 6° |
| 2026-05-09 04:17 | -11.65833 | 56.11163 | 40982 ft | 485 kts | 7° |
| 2026-05-09 04:18 | -11.59144 | 56.12217 | 40984 ft | 485 kts | 6° |
| 2026-05-09 04:18 | -11.52468 | 56.13271 | 40984 ft | 484 kts | 5° |
| 2026-05-09 04:19 | -11.45853 | 56.14318 | 40981 ft | 484 kts | 6° |
| 2026-05-09 04:19 | -11.39181 | 56.15373 | 40980 ft | 484 kts | 6° |
| 2026-05-09 04:20 | -11.32513 | 56.16429 | 40980 ft | 484 kts | 6° |
| 2026-05-09 04:20 | -11.25891 | 56.17475 | 40980 ft | 484 kts | 7° |
| 2026-05-09 04:21 | -11.19223 | 56.18525 | 40980 ft | 484 kts | 6° |
| 2026-05-09 04:22 | -11.09251 | 56.20094 | 40977 ft | 484 kts | 6° |
| 2026-05-09 04:22 | -11.02596 | 56.21144 | 40977 ft | 484 kts | 5° |
| 2026-05-09 04:23 | -10.95927 | 56.22194 | 40976 ft | 484 kts | 6° |
| 2026-05-09 04:23 | -10.89328 | 56.23236 | 40971 ft | 482 kts | 6° |
| 2026-05-09 04:24 | -10.82689 | 56.24280 | 40975 ft | 482 kts | 6° |
| 2026-05-09 04:24 | -10.76045 | 56.25324 | 40972 ft | 482 kts | 6° |
| 2026-05-09 04:25 | -10.69456 | 56.26358 | 40970 ft | 482 kts | 6° |
| 2026-05-09 04:25 | -10.62833 | 56.27402 | 40969 ft | 481 kts | 6° |
| 2026-05-09 04:26 | -10.56217 | 56.28444 | 40972 ft | 480 kts | 6° |
| 2026-05-09 04:26 | -10.49646 | 56.29475 | 40969 ft | 480 kts | 6° |
| 2026-05-09 04:27 | -10.43032 | 56.30509 | 40967 ft | 480 kts | 6° |
| 2026-05-09 04:27 | -10.36405 | 56.31547 | 40964 ft | 481 kts | 6° |
| 2026-05-09 04:28 | -10.29793 | 56.32584 | 40965 ft | 480 kts | 5° |
| 2026-05-09 04:28 | -10.23230 | 56.33613 | 40966 ft | 480 kts | 6° |
| 2026-05-09 04:29 | -10.16616 | 56.34648 | 40966 ft | 480 kts | 7° |
| 2026-05-09 04:29 | -10.10022 | 56.35682 | 40965 ft | 480 kts | 6° |
| 2026-05-09 04:30 | -10.03461 | 56.36708 | 40966 ft | 479 kts | 4° |
| 2026-05-09 04:30 | -9.96841 | 56.36827 | 40967 ft | 474 kts | 353° |
| 2026-05-09 04:31 | -9.90264 | 56.36171 | 40962 ft | 474 kts | 351° |
| 2026-05-09 04:31 | -9.83707 | 56.35368 | 40962 ft | 474 kts | 351° |
| 2026-05-09 04:32 | -9.77191 | 56.34564 | 40958 ft | 474 kts | 352° |
| 2026-05-09 04:32 | -9.70624 | 56.33774 | 40960 ft | 475 kts | 351° |
| 2026-05-09 04:33 | -9.64040 | 56.32996 | 40959 ft | 475 kts | 351° |
| 2026-05-09 04:33 | -9.57512 | 56.32226 | 40960 ft | 475 kts | 350° |
| 2026-05-09 04:34 | -9.50931 | 56.31450 | 40961 ft | 475 kts | 350° |
| 2026-05-09 04:34 | -9.44382 | 56.30677 | 40961 ft | 475 kts | 352° |
| 2026-05-09 04:35 | -9.37792 | 56.29900 | 40955 ft | 476 kts | 352° |
| 2026-05-09 04:35 | -9.31208 | 56.29123 | 40957 ft | 476 kts | 352° |
| 2026-05-09 04:36 | -9.24622 | 56.28346 | 40962 ft | 476 kts | 352° |
| 2026-05-09 04:36 | -9.18071 | 56.27574 | 40961 ft | 476 kts | 352° |
| 2026-05-09 04:37 | -9.11478 | 56.26799 | 40962 ft | 476 kts | 351° |
| 2026-05-09 04:37 | -9.04891 | 56.26023 | 40958 ft | 476 kts | 352° |
| 2026-05-09 04:38 | -8.98346 | 56.25252 | 40963 ft | 476 kts | 352° |
| 2026-05-09 04:38 | -8.91763 | 56.24478 | 40959 ft | 476 kts | 352° |
| 2026-05-09 04:39 | -8.86286 | 56.23833 | 40962 ft | 476 kts | 352° |
| 2026-05-09 04:39 | -8.78626 | 56.22932 | 40958 ft | 475 kts | 353° |
| 2026-05-09 04:40 | -8.73151 | 56.22288 | 40961 ft | 475 kts | 352° |
| 2026-05-09 04:40 | -8.66574 | 56.21515 | 40960 ft | 475 kts | 352° |
| 2026-05-09 04:41 | -8.59998 | 56.20742 | 40963 ft | 475 kts | 352° |
| 2026-05-09 04:41 | -8.53405 | 56.19968 | 40959 ft | 476 kts | 352° |
| 2026-05-09 04:42 | -8.46876 | 56.19202 | 40961 ft | 474 kts | 352° |
| 2026-05-09 04:42 | -8.40333 | 56.18434 | 40956 ft | 473 kts | 353° |
| 2026-05-09 04:43 | -8.33800 | 56.17667 | 40955 ft | 473 kts | 353° |
| 2026-05-09 04:43 | -8.27248 | 56.16899 | 40955 ft | 472 kts | 352° |
| 2026-05-09 04:44 | -8.20753 | 56.16137 | 40957 ft | 473 kts | 352° |
| 2026-05-09 04:44 | -8.14209 | 56.15370 | 40960 ft | 472 kts | 353° |
| 2026-05-09 04:45 | -8.07657 | 56.14601 | 40958 ft | 472 kts | 353° |
| 2026-05-09 04:45 | -8.01163 | 56.13841 | 40957 ft | 472 kts | 353° |
| 2026-05-09 04:46 | -7.94624 | 56.13075 | 40956 ft | 472 kts | 353° |
| 2026-05-09 04:46 | -7.88119 | 56.12314 | 40954 ft | 472 kts | 353° |
| 2026-05-09 04:47 | -7.81586 | 56.11549 | 40958 ft | 473 kts | 353° |
| 2026-05-09 04:47 | -7.75049 | 56.10785 | 40957 ft | 473 kts | 353° |
| 2026-05-09 04:48 | -7.68499 | 56.10019 | 40957 ft | 473 kts | 353° |
| 2026-05-09 04:48 | -7.62014 | 56.08895 | 40956 ft | 472 kts | 344° |
| 2026-05-09 04:49 | -7.55754 | 56.07017 | 40955 ft | 473 kts | 343° |
| 2026-05-09 04:49 | -7.49474 | 56.04964 | 40959 ft | 475 kts | 342° |
| 2026-05-09 04:50 | -7.43178 | 56.02882 | 40954 ft | 475 kts | 342° |
| 2026-05-09 04:50 | -7.36879 | 56.00817 | 40955 ft | 475 kts | 342° |
| 2026-05-09 04:51 | -7.30622 | 55.98779 | 40957 ft | 476 kts | 342° |
| 2026-05-09 04:51 | -7.24328 | 55.96731 | 40955 ft | 475 kts | 343° |
| 2026-05-09 04:52 | -7.18007 | 55.94676 | 40955 ft | 477 kts | 343° |
| 2026-05-09 04:52 | -7.11672 | 55.92617 | 40955 ft | 478 kts | 342° |